Buxfavourite — A8TQ4 — position and weather

sailwx.info

Track history (hours):
 
Tides and Currents Weather Stations Pressure Air Temp Water Temp Dewpoint Dewpoint Depression Visibility Wind Speed Wind Dir Waves Ship Positions

Buxfavourite

Last reported at 2018-Feb-21 00:26 UTC. Time now 2018-Feb-22 18:34 UTC.
Position N 01°14' E 103°26'.

Length 208 m; draft 11.4 m.

Type: Ship. MMSI: 636091848.

Date/timePositionNaut miles runAvg speedWind from/ knotsBaromVisibWave heightAir tempDewpointWater temp
2018-Feb-21 00:26N 01°14' E 103°26'613.9
2018-Feb-20 23:59N 01°15' E 103°32'612.1
2018-Feb-20 23:28N 01°21' E 103°33'2 0.1
2018-Feb-20 11:20N 01°22' E 103°33'0 0.0
2018-Feb-20 10:56N 01°22' E 103°33'0 0.0
2018-Feb-20 08:09N 01°22' E 103°33'0 0.4
2018-Feb-20 08:00N 01°22' E 103°33'3 6.9
2018-Feb-20 07:30N 01°19' E 103°34'611.2
2018-Feb-20 06:59N 01°14' E 103°31'4 1.8
2018-Feb-20 04:56N 01°15' E 103°28'0 0.0
2018-Feb-20 04:11N 01°15' E 103°28'0 0.0
2018-Feb-20 03:52N 01°15' E 103°28'0 0.0
2018-Feb-20 03:19N 01°15' E 103°28'0 0.0
2018-Feb-20 02:58N 01°15' E 103°28'0 0.0
2018-Feb-20 02:28N 01°15' E 103°28'0 0.0
2018-Feb-20 01:54N 01°15' E 103°28'0 0.1
2018-Feb-20 01:30N 01°15' E 103°28'1 1.5
2018-Feb-20 01:00N 01°15' E 103°28'611.8
2018-Feb-20 00:30N 01°13' E 103°34'4 8.0
2018-Feb-19 23:58N 01°12' E 103°38'4 9.0
2018-Feb-19 23:30N 01°14' E 103°42'510.2
2018-Feb-19 23:00N 01°15' E 103°46'1 1.5
2018-Feb-19 22:30N 01°15' E 103°47'0 0.0
2018-Feb-19 22:00N 01°15' E 103°47'0 0.0
2018-Feb-19 21:24N 01°15' E 103°47'0 0.0
2018-Feb-19 21:00N 01°15' E 103°47'0 0.0
2018-Feb-19 20:29N 01°15' E 103°47'0 0.0
2018-Feb-19 19:59N 01°15' E 103°47'0 0.0
2018-Feb-19 19:29N 01°15' E 103°47'0 0.0
2018-Feb-19 18:59N 01°15' E 103°47'0 0.0
2018-Feb-19 18:29N 01°15' E 103°47'0 0.0
2018-Feb-19 17:55N 01°15' E 103°47'0 0.0
2018-Feb-19 17:25N 01°15' E 103°47'0 0.0
2018-Feb-19 16:58N 01°15' E 103°47'0 0.0
2018-Feb-19 16:28N 01°15' E 103°47'0 0.0
2018-Feb-19 15:57N 01°15' E 103°47'0 0.0
2018-Feb-19 15:30N 01°15' E 103°47'0 0.0
2018-Feb-19 15:00N 01°15' E 103°47'0 0.0
2018-Feb-19 14:21N 01°15' E 103°47'0 0.0
2018-Feb-19 13:58N 01°15' E 103°47'0 0.0
2018-Feb-19 13:26N 01°15' E 103°47'0 0.0
2018-Feb-19 12:56N 01°15' E 103°47'0 0.0
2018-Feb-19 12:26N 01°15' E 103°47'0 0.0
2018-Feb-19 11:56N 01°15' E 103°47'0 0.0
2018-Feb-19 11:23N 01°15' E 103°47'0 0.0
2018-Feb-19 10:58N 01°15' E 103°47'0 0.0
2018-Feb-19 10:25N 01°15' E 103°47'0 0.0
2018-Feb-19 09:58N 01°15' E 103°47'0 0.0
2018-Feb-19 09:28N 01°15' E 103°47'0 0.0
2018-Feb-19 09:00N 01°15' E 103°47'0 0.0
2018-Feb-19 08:30N 01°15' E 103°47'0 0.0
2018-Feb-19 08:00N 01°15' E 103°47'0 0.0
2018-Feb-19 07:30N 01°15' E 103°47'0 0.0
2018-Feb-19 07:00N 01°15' E 103°47'0 0.0
2018-Feb-19 06:30N 01°15' E 103°47'2 3.5
2018-Feb-19 06:00N 01°14' E 103°48'1 0.9
2018-Feb-19 05:24N 01°14' E 103°49'0 0.0
2018-Feb-19 05:00N 01°14' E 103°49'0 0.0
2018-Feb-19 04:30N 01°14' E 103°49'0 0.0
2018-Feb-19 04:00N 01°14' E 103°49'0 0.0
2018-Feb-19 03:28N 01°14' E 103°49'0 0.0
2018-Feb-19 02:59N 01°14' E 103°49'0 0.0
2018-Feb-19 02:29N 01°14' E 103°49'0 0.0
2018-Feb-19 01:56N 01°14' E 103°49'0 0.0
2018-Feb-19 01:29N 01°14' E 103°49'0 0.0
2018-Feb-19 00:52N 01°14' E 103°49'0 0.0
2018-Feb-19 00:28N 01°14' E 103°49'0 0.0
2018-Feb-18 23:55N 01°14' E 103°49'0 0.0
2018-Feb-18 23:28N 01°14' E 103°49'0 0.0
2018-Feb-18 22:52N 01°14' E 103°49'0 0.0
2018-Feb-18 22:03N 01°14' E 103°49'0 0.0
2018-Feb-18 21:39N 01°14' E 103°49'0 0.0
2018-Feb-18 21:15N 01°14' E 103°49'0 0.0
2018-Feb-18 20:57N 01°14' E 103°49'0 0.0
2018-Feb-18 20:20N 01°14' E 103°49'0 0.0
2018-Feb-18 19:56N 01°14' E 103°49'0 0.0
2018-Feb-18 19:26N 01°14' E 103°49'0 0.0
2018-Feb-18 18:56N 01°14' E 103°49'0 0.0
2018-Feb-18 18:23N 01°14' E 103°49'0 0.0
2018-Feb-18 17:43N 01°14' E 103°49'0 0.0
2018-Feb-18 17:25N 01°14' E 103°49'0 0.1
2018-Feb-18 17:00N 01°14' E 103°49'1 2.3
2018-Feb-18 16:31N 01°14' E 103°47'4 7.9
2018-Feb-18 16:00N 01°15' E 103°43'11 8.6
2018-Feb-18 14:45N 01°13' E 103°33'7 3.4
2018-Feb-18 12:41N 01°15' E 103°26'0 0.9
2018-Feb-18 12:21N 01°15' E 103°26'411.1
2018-Feb-18 11:57N 01°14' E 103°30'3 7.1
2018-Feb-18 11:28N 01°16' E 103°33'6 0.7
2018-Feb-18 03:12N 01°22' E 103°33'0 0.1
2018-Feb-18 02:58N 01°22' E 103°33'2 5.0
2018-Feb-18 02:29N 01°20' E 103°33'510.8
2018-Feb-18 02:00N 01°15' E 103°32'611.8
2018-Feb-18 01:30N 01°10' E 103°28'  
Track history (hours):
 
Tides and Currents Weather Stations Pressure Air Temp Water Temp Dewpoint Dewpoint Depression Visibility Wind Speed Wind Dir Waves Ship Positions

Buxfavourite

Last reported at 2018-Feb-21 00:26 UTC. Time now 2018-Feb-22 18:34 UTC.
Position N 01°14' E 103°26'.

Length 208 m; draft 11.4 m.

Type: Ship. MMSI: 636091848.

Date/timePositionNaut miles runAvg speedWind from/ knotsBaromVisibWave heightAir tempDewpointWater temp
2018-Feb-21 00:26N 01°14' E 103°26'613.9
2018-Feb-20 23:59N 01°15' E 103°32'612.1
2018-Feb-20 23:28N 01°21' E 103°33'2 0.1
2018-Feb-20 11:20N 01°22' E 103°33'0 0.0
2018-Feb-20 10:56N 01°22' E 103°33'0 0.0
2018-Feb-20 08:09N 01°22' E 103°33'0 0.4
2018-Feb-20 08:00N 01°22' E 103°33'3 6.9
2018-Feb-20 07:30N 01°19' E 103°34'611.2
2018-Feb-20 06:59N 01°14' E 103°31'4 1.8
2018-Feb-20 04:56N 01°15' E 103°28'0 0.0
2018-Feb-20 04:11N 01°15' E 103°28'0 0.0
2018-Feb-20 03:52N 01°15' E 103°28'0 0.0
2018-Feb-20 03:19N 01°15' E 103°28'0 0.0
2018-Feb-20 02:58N 01°15' E 103°28'0 0.0
2018-Feb-20 02:28N 01°15' E 103°28'0 0.0
2018-Feb-20 01:54N 01°15' E 103°28'0 0.1
2018-Feb-20 01:30N 01°15' E 103°28'1 1.5
2018-Feb-20 01:00N 01°15' E 103°28'611.8
2018-Feb-20 00:30N 01°13' E 103°34'4 8.0
2018-Feb-19 23:58N 01°12' E 103°38'4 9.0
2018-Feb-19 23:30N 01°14' E 103°42'510.2
2018-Feb-19 23:00N 01°15' E 103°46'1 1.5
2018-Feb-19 22:30N 01°15' E 103°47'0 0.0
2018-Feb-19 22:00N 01°15' E 103°47'0 0.0
2018-Feb-19 21:24N 01°15' E 103°47'0 0.0
2018-Feb-19 21:00N 01°15' E 103°47'0 0.0
2018-Feb-19 20:29N 01°15' E 103°47'0 0.0
2018-Feb-19 19:59N 01°15' E 103°47'0 0.0
2018-Feb-19 19:29N 01°15' E 103°47'0 0.0
2018-Feb-19 18:59N 01°15' E 103°47'0 0.0
2018-Feb-19 18:29N 01°15' E 103°47'0 0.0
2018-Feb-19 17:55N 01°15' E 103°47'0 0.0
2018-Feb-19 17:25N 01°15' E 103°47'0 0.0
2018-Feb-19 16:58N 01°15' E 103°47'0 0.0
2018-Feb-19 16:28N 01°15' E 103°47'0 0.0
2018-Feb-19 15:57N 01°15' E 103°47'0 0.0
2018-Feb-19 15:30N 01°15' E 103°47'0 0.0
2018-Feb-19 15:00N 01°15' E 103°47'0 0.0
2018-Feb-19 14:21N 01°15' E 103°47'0 0.0
2018-Feb-19 13:58N 01°15' E 103°47'0 0.0
2018-Feb-19 13:26N 01°15' E 103°47'0 0.0
2018-Feb-19 12:56N 01°15' E 103°47'0 0.0
2018-Feb-19 12:26N 01°15' E 103°47'0 0.0
2018-Feb-19 11:56N 01°15' E 103°47'0 0.0
2018-Feb-19 11:23N 01°15' E 103°47'0 0.0
2018-Feb-19 10:58N 01°15' E 103°47'0 0.0
2018-Feb-19 10:25N 01°15' E 103°47'0 0.0
2018-Feb-19 09:58N 01°15' E 103°47'0 0.0
2018-Feb-19 09:28N 01°15' E 103°47'0 0.0
2018-Feb-19 09:00N 01°15' E 103°47'0 0.0
2018-Feb-19 08:30N 01°15' E 103°47'0 0.0
2018-Feb-19 08:00N 01°15' E 103°47'0 0.0
2018-Feb-19 07:30N 01°15' E 103°47'0 0.0
2018-Feb-19 07:00N 01°15' E 103°47'0 0.0
2018-Feb-19 06:30N 01°15' E 103°47'2 3.5
2018-Feb-19 06:00N 01°14' E 103°48'1 0.9
2018-Feb-19 05:24N 01°14' E 103°49'0 0.0
2018-Feb-19 05:00N 01°14' E 103°49'0 0.0
2018-Feb-19 04:30N 01°14' E 103°49'0 0.0
2018-Feb-19 04:00N 01°14' E 103°49'0 0.0
2018-Feb-19 03:28N 01°14' E 103°49'0 0.0
2018-Feb-19 02:59N 01°14' E 103°49'0 0.0
2018-Feb-19 02:29N 01°14' E 103°49'0 0.0
2018-Feb-19 01:56N 01°14' E 103°49'0 0.0
2018-Feb-19 01:29N 01°14' E 103°49'0 0.0
2018-Feb-19 00:52N 01°14' E 103°49'0 0.0
2018-Feb-19 00:28N 01°14' E 103°49'0 0.0
2018-Feb-18 23:55N 01°14' E 103°49'0 0.0
2018-Feb-18 23:28N 01°14' E 103°49'0 0.0
2018-Feb-18 22:52N 01°14' E 103°49'0 0.0
2018-Feb-18 22:03N 01°14' E 103°49'0 0.0
2018-Feb-18 21:39N 01°14' E 103°49'0 0.0
2018-Feb-18 21:15N 01°14' E 103°49'0 0.0
2018-Feb-18 20:57N 01°14' E 103°49'0 0.0
2018-Feb-18 20:20N 01°14' E 103°49'0 0.0
2018-Feb-18 19:56N 01°14' E 103°49'0 0.0
2018-Feb-18 19:26N 01°14' E 103°49'0 0.0
2018-Feb-18 18:56N 01°14' E 103°49'0 0.0
2018-Feb-18 18:23N 01°14' E 103°49'0 0.0
2018-Feb-18 17:43N 01°14' E 103°49'0 0.0
2018-Feb-18 17:25N 01°14' E 103°49'0 0.1
2018-Feb-18 17:00N 01°14' E 103°49'1 2.3
2018-Feb-18 16:31N 01°14' E 103°47'4 7.9
2018-Feb-18 16:00N 01°15' E 103°43'11 8.6
2018-Feb-18 14:45N 01°13' E 103°33'7 3.4
2018-Feb-18 12:41N 01°15' E 103°26'0 0.9
2018-Feb-18 12:21N 01°15' E 103°26'411.1
2018-Feb-18 11:57N 01°14' E 103°30'3 7.1
2018-Feb-18 11:28N 01°16' E 103°33'6 0.7
2018-Feb-18 03:12N 01°22' E 103°33'0 0.1
2018-Feb-18 02:58N 01°22' E 103°33'2 5.0
2018-Feb-18 02:29N 01°20' E 103°33'510.8
2018-Feb-18 02:00N 01°15' E 103°32'611.8
2018-Feb-18 01:30N 01°10' E 103°28'  

Dump ship's entire track history